BAW45V EGLL-EDDH
Flight info
| Callsign | BAW45V |
|---|---|
| Flight time | 1h 3m |
| Altitude | 37000 |
| Route | BPK Q295 SOMVA DCT MAVAS DCT GASTU DCT OSTOR/N0373F230 T904 RIBSO RIBSO7A |
| Aircraft | A320/M-SDE3FGHIRWY/LB1 |
Departure
| Time | 2026-05-05 11:51 |
|---|---|
| Airport | London Heathrow Airport (EGLL) |
Arrival
| Time | 2026-05-05 12:55 |
|---|---|
| Airport | Hamburg Helmut Schmidt Airport (EDDH) |
| Time | Latitude | Longitude | Altitude | Speed | Heading |
|---|---|---|---|---|---|
| 2026-05-05 10:58 | 51.47061 | -0.48592 | 85 ft | 0 kts | 269° |
| 2026-05-05 11:27 | 51.47061 | -0.48591 | 85 ft | 0 kts | 269° |
| 2026-05-05 11:39 | 51.47061 | -0.48555 | 86 ft | 4 kts | 269° |
| 2026-05-05 11:39 | 51.47062 | -0.48512 | 88 ft | 4 kts | 259° |
| 2026-05-05 11:39 | 51.47070 | -0.48478 | 90 ft | 4 kts | 204° |
| 2026-05-05 11:39 | 51.47076 | -0.48474 | 90 ft | 0 kts | 180° |
| 2026-05-05 11:45 | 51.47057 | -0.48474 | 88 ft | 5 kts | 180° |
| 2026-05-05 11:45 | 51.47014 | -0.48475 | 85 ft | 7 kts | 180° |
| 2026-05-05 11:45 | 51.46955 | -0.48474 | 85 ft | 10 kts | 178° |
| 2026-05-05 11:45 | 51.46879 | -0.48471 | 86 ft | 9 kts | 179° |
| 2026-05-05 11:46 | 51.46851 | -0.48470 | 85 ft | 2 kts | 180° |
| 2026-05-05 11:46 | 51.46838 | -0.48470 | 87 ft | 1 kts | 180° |
| 2026-05-05 11:46 | 51.46836 | -0.48470 | 87 ft | 0 kts | 180° |
| 2026-05-05 11:47 | 51.46809 | -0.48470 | 86 ft | 8 kts | 180° |
| 2026-05-05 11:47 | 51.46738 | -0.48471 | 85 ft | 12 kts | 180° |
| 2026-05-05 11:47 | 51.46655 | -0.48469 | 88 ft | 8 kts | 180° |
| 2026-05-05 11:48 | 51.46594 | -0.48470 | 89 ft | 7 kts | 180° |
| 2026-05-05 11:48 | 51.46516 | -0.48467 | 88 ft | 15 kts | 178° |
| 2026-05-05 11:48 | 51.46479 | -0.48369 | 88 ft | 0 kts | 89° |
| 2026-05-05 11:49 | 51.46479 | -0.48370 | 88 ft | 0 kts | 89° |
| 2026-05-05 11:50 | 51.46479 | -0.48353 | 88 ft | 12 kts | 89° |
| 2026-05-05 11:50 | 51.46481 | -0.47780 | 83 ft | 88 kts | 89° |
| 2026-05-05 11:50 | 51.46486 | -0.46473 | 91 ft | 143 kts | 90° |
| 2026-05-05 11:51 | 51.46487 | -0.44657 | 237 ft | 175 kts | 89° |
| 2026-05-05 11:51 | 51.46448 | -0.42645 | 698 ft | 191 kts | 90° |
| 2026-05-05 11:51 | 51.46478 | -0.40526 | 1511 ft | 191 kts | 73° |
| 2026-05-05 11:51 | 51.47163 | -0.38645 | 1991 ft | 207 kts | 47° |
| 2026-05-05 11:52 | 51.48222 | -0.36875 | 2441 ft | 232 kts | 43° |
| 2026-05-05 11:52 | 51.49418 | -0.35004 | 3234 ft | 246 kts | 43° |
| 2026-05-05 11:52 | 51.50633 | -0.33029 | 4226 ft | 251 kts | 46° |
| 2026-05-05 11:52 | 51.51820 | -0.30942 | 5225 ft | 255 kts | 53° |
| 2026-05-05 11:53 | 51.52660 | -0.28389 | 5799 ft | 262 kts | 67° |
| 2026-05-05 11:53 | 51.53311 | -0.25644 | 5971 ft | 265 kts | 70° |
| 2026-05-05 11:53 | 51.53901 | -0.22857 | 6007 ft | 263 kts | 71° |
| 2026-05-05 11:53 | 51.54648 | -0.20207 | 6019 ft | 262 kts | 51° |
| 2026-05-05 11:54 | 51.56114 | -0.18572 | 6014 ft | 265 kts | 20° |
| 2026-05-05 11:54 | 51.57908 | -0.17865 | 6026 ft | 266 kts | 15° |
| 2026-05-05 11:54 | 51.59741 | -0.17278 | 6656 ft | 270 kts | 8° |
| 2026-05-05 11:54 | 51.61595 | -0.16744 | 7616 ft | 273 kts | 12° |
| 2026-05-05 11:55 | 51.63456 | -0.16026 | 8527 ft | 277 kts | 14° |
| 2026-05-05 11:55 | 51.65325 | -0.15204 | 9415 ft | 280 kts | 15° |
| 2026-05-05 11:55 | 51.67214 | -0.14324 | 10202 ft | 288 kts | 16° |
| 2026-05-05 11:55 | 51.69220 | -0.13378 | 10492 ft | 312 kts | 16° |
| 2026-05-05 11:56 | 51.71294 | -0.12064 | 10889 ft | 328 kts | 32° |
| 2026-05-05 11:56 | 51.72971 | -0.09539 | 11562 ft | 336 kts | 53° |
| 2026-05-05 11:56 | 51.74295 | -0.06411 | 12329 ft | 339 kts | 56° |
| 2026-05-05 11:56 | 51.75588 | -0.03216 | 13104 ft | 342 kts | 56° |
| 2026-05-05 11:57 | 51.76899 | 0.00015 | 13857 ft | 345 kts | 56° |
| 2026-05-05 11:57 | 51.78220 | 0.03273 | 14546 ft | 348 kts | 56° |
| 2026-05-05 11:57 | 51.79561 | 0.06566 | 15176 ft | 352 kts | 56° |
| 2026-05-05 11:57 | 51.80914 | 0.09880 | 15821 ft | 356 kts | 56° |
| 2026-05-05 11:58 | 51.82298 | 0.13248 | 16338 ft | 363 kts | 56° |
| 2026-05-05 11:58 | 51.83711 | 0.16673 | 16914 ft | 369 kts | 56° |
| 2026-05-05 11:58 | 51.85149 | 0.20145 | 17522 ft | 373 kts | 56° |
| 2026-05-05 11:58 | 51.86601 | 0.23644 | 18166 ft | 377 kts | 56° |
| 2026-05-05 11:59 | 51.88052 | 0.27128 | 18723 ft | 382 kts | 56° |
| 2026-05-05 11:59 | 51.89544 | 0.30711 | 19308 ft | 385 kts | 56° |
| 2026-05-05 11:59 | 51.91056 | 0.34329 | 19871 ft | 390 kts | 56° |
| 2026-05-05 11:59 | 51.92581 | 0.37978 | 20470 ft | 393 kts | 56° |
| 2026-05-05 12:00 | 51.94128 | 0.41670 | 20988 ft | 398 kts | 56° |
| 2026-05-05 12:00 | 51.95688 | 0.45399 | 21584 ft | 401 kts | 56° |
| 2026-05-05 12:00 | 51.97261 | 0.49154 | 22115 ft | 405 kts | 57° |
| 2026-05-05 12:00 | 51.98854 | 0.52933 | 22734 ft | 406 kts | 56° |
| 2026-05-05 12:01 | 52.00462 | 0.56725 | 23290 ft | 410 kts | 56° |
| 2026-05-05 12:01 | 52.02090 | 0.60558 | 23796 ft | 413 kts | 56° |
| 2026-05-05 12:01 | 52.03727 | 0.64416 | 24245 ft | 416 kts | 56° |
| 2026-05-05 12:01 | 52.05378 | 0.68304 | 24653 ft | 421 kts | 56° |
| 2026-05-05 12:02 | 52.07022 | 0.72191 | 25027 ft | 425 kts | 56° |
| 2026-05-05 12:02 | 52.08707 | 0.76166 | 25437 ft | 429 kts | 56° |
| 2026-05-05 12:02 | 52.10408 | 0.80168 | 25845 ft | 432 kts | 56° |
| 2026-05-05 12:02 | 52.12126 | 0.84204 | 26248 ft | 435 kts | 56° |
| 2026-05-05 12:03 | 52.13859 | 0.88265 | 26645 ft | 438 kts | 56° |
| 2026-05-05 12:03 | 52.15595 | 0.92325 | 27030 ft | 441 kts | 56° |
| 2026-05-05 12:03 | 52.17356 | 0.96436 | 27422 ft | 444 kts | 57° |
| 2026-05-05 12:03 | 52.18951 | 1.00751 | 27780 ft | 445 kts | 69° |
| 2026-05-05 12:04 | 52.19819 | 1.05563 | 28145 ft | 443 kts | 84° |
| 2026-05-05 12:04 | 52.20217 | 1.10547 | 28521 ft | 445 kts | 86° |
| 2026-05-05 12:04 | 52.20593 | 1.15575 | 28896 ft | 448 kts | 86° |
| 2026-05-05 12:04 | 52.20962 | 1.20629 | 29273 ft | 450 kts | 86° |
| 2026-05-05 12:05 | 52.21329 | 1.25724 | 29648 ft | 453 kts | 86° |
| 2026-05-05 12:05 | 52.21696 | 1.30843 | 30016 ft | 456 kts | 86° |
| 2026-05-05 12:05 | 52.22069 | 1.35997 | 30336 ft | 459 kts | 86° |
| 2026-05-05 12:05 | 52.22449 | 1.41182 | 30668 ft | 461 kts | 86° |
| 2026-05-05 12:06 | 52.22831 | 1.46380 | 30989 ft | 463 kts | 86° |
| 2026-05-05 12:06 | 52.23212 | 1.51608 | 31272 ft | 465 kts | 86° |
| 2026-05-05 12:06 | 52.23590 | 1.56856 | 31612 ft | 466 kts | 86° |
| 2026-05-05 12:06 | 52.23964 | 1.62107 | 32055 ft | 465 kts | 86° |
| 2026-05-05 12:07 | 52.24325 | 1.67284 | 32489 ft | 464 kts | 85° |
| 2026-05-05 12:07 | 52.24689 | 1.72523 | 32927 ft | 464 kts | 85° |
| 2026-05-05 12:07 | 52.25051 | 1.77750 | 33364 ft | 463 kts | 85° |
| 2026-05-05 12:07 | 52.25409 | 1.82961 | 33799 ft | 462 kts | 85° |
| 2026-05-05 12:08 | 52.25768 | 1.88182 | 34198 ft | 462 kts | 85° |
| 2026-05-05 12:08 | 52.26124 | 1.93396 | 34568 ft | 461 kts | 85° |
| 2026-05-05 12:08 | 52.26478 | 1.98598 | 34920 ft | 460 kts | 85° |
| 2026-05-05 12:08 | 52.26828 | 2.03791 | 35275 ft | 460 kts | 85° |
| 2026-05-05 12:09 | 52.27175 | 2.08981 | 35625 ft | 460 kts | 85° |
| 2026-05-05 12:09 | 52.27514 | 2.14117 | 35949 ft | 459 kts | 85° |
| 2026-05-05 12:09 | 52.27854 | 2.19299 | 36265 ft | 459 kts | 85° |
| 2026-05-05 12:09 | 52.28193 | 2.24493 | 36579 ft | 459 kts | 85° |
| 2026-05-05 12:10 | 52.28530 | 2.29681 | 36880 ft | 459 kts | 85° |
| 2026-05-05 12:10 | 52.28865 | 2.34864 | 36981 ft | 460 kts | 85° |
| 2026-05-05 12:10 | 52.29531 | 2.45258 | 36989 ft | 459 kts | 85° |
| 2026-05-05 12:11 | 52.30185 | 2.55643 | 36991 ft | 460 kts | 86° |
| 2026-05-05 12:11 | 52.31016 | 2.65939 | 36981 ft | 461 kts | 77° |
| 2026-05-05 12:12 | 52.32784 | 2.76025 | 36990 ft | 462 kts | 75° |
| 2026-05-05 12:12 | 52.34249 | 2.84335 | 36989 ft | 462 kts | 75° |
| 2026-05-05 12:13 | 52.36017 | 2.94445 | 36992 ft | 462 kts | 75° |
| 2026-05-05 12:13 | 52.37776 | 3.04577 | 36986 ft | 463 kts | 75° |
| 2026-05-05 12:14 | 52.39531 | 3.14713 | 36990 ft | 463 kts | 73° |
| 2026-05-05 12:14 | 52.42062 | 3.24430 | 36993 ft | 464 kts | 66° |
| 2026-05-05 12:15 | 52.44778 | 3.34032 | 36994 ft | 464 kts | 66° |
| 2026-05-05 12:15 | 52.47476 | 3.43662 | 37003 ft | 464 kts | 66° |
| 2026-05-05 12:16 | 52.50158 | 3.53318 | 36976 ft | 466 kts | 66° |
| 2026-05-05 12:16 | 52.52851 | 3.62999 | 36975 ft | 467 kts | 66° |
| 2026-05-05 12:17 | 52.55533 | 3.72634 | 36975 ft | 467 kts | 66° |
| 2026-05-05 12:17 | 52.58223 | 3.82356 | 36969 ft | 468 kts | 66° |
| 2026-05-05 12:18 | 52.60900 | 3.92122 | 36981 ft | 468 kts | 66° |
| 2026-05-05 12:18 | 52.63574 | 4.01897 | 36973 ft | 468 kts | 66° |
| 2026-05-05 12:19 | 52.66247 | 4.11685 | 36984 ft | 469 kts | 66° |
| 2026-05-05 12:19 | 52.68908 | 4.21504 | 36982 ft | 469 kts | 67° |
| 2026-05-05 12:20 | 52.71564 | 4.31348 | 36980 ft | 470 kts | 67° |
| 2026-05-05 12:20 | 52.74222 | 4.41200 | 36977 ft | 470 kts | 67° |
| 2026-05-05 12:21 | 52.76870 | 4.51068 | 36976 ft | 470 kts | 67° |
| 2026-05-05 12:21 | 52.79490 | 4.60905 | 36985 ft | 470 kts | 67° |
| 2026-05-05 12:22 | 52.82121 | 4.70799 | 36987 ft | 470 kts | 67° |
| 2026-05-05 12:22 | 52.84746 | 4.80721 | 36992 ft | 470 kts | 67° |
| 2026-05-05 12:23 | 52.87363 | 4.90648 | 36993 ft | 470 kts | 67° |
| 2026-05-05 12:23 | 52.89975 | 5.00599 | 36979 ft | 471 kts | 68° |
| 2026-05-05 12:24 | 52.92566 | 5.10559 | 36978 ft | 471 kts | 67° |
| 2026-05-05 12:24 | 52.95144 | 5.20479 | 36972 ft | 471 kts | 68° |
| 2026-05-05 12:25 | 52.97730 | 5.30485 | 36975 ft | 472 kts | 68° |
| 2026-05-05 12:25 | 53.00315 | 5.40516 | 36973 ft | 472 kts | 68° |
| 2026-05-05 12:26 | 53.02895 | 5.50546 | 36975 ft | 472 kts | 68° |
| 2026-05-05 12:26 | 53.05031 | 5.58890 | 36977 ft | 472 kts | 68° |
| 2026-05-05 12:27 | 53.07591 | 5.68966 | 36970 ft | 473 kts | 68° |
| 2026-05-05 12:27 | 53.10549 | 5.80700 | 36971 ft | 473 kts | 68° |
| 2026-05-05 12:28 | 53.12679 | 5.89171 | 36988 ft | 474 kts | 68° |
| 2026-05-05 12:28 | 53.15226 | 5.99296 | 36987 ft | 474 kts | 68° |
| 2026-05-05 12:29 | 53.17744 | 6.09372 | 36983 ft | 474 kts | 68° |
| 2026-05-05 12:29 | 53.20271 | 6.19531 | 36964 ft | 474 kts | 68° |
| 2026-05-05 12:30 | 53.22789 | 6.29724 | 36961 ft | 475 kts | 68° |
| 2026-05-05 12:30 | 53.25298 | 6.39928 | 36968 ft | 475 kts | 68° |
| 2026-05-05 12:31 | 53.27812 | 6.50167 | 36979 ft | 476 kts | 68° |
| 2026-05-05 12:31 | 53.30317 | 6.60413 | 36993 ft | 476 kts | 68° |
| 2026-05-05 12:32 | 53.32812 | 6.70676 | 36971 ft | 477 kts | 69° |
| 2026-05-05 12:32 | 53.35280 | 6.80903 | 36976 ft | 477 kts | 69° |
| 2026-05-05 12:33 | 53.37755 | 6.91209 | 36980 ft | 477 kts | 69° |
| 2026-05-05 12:33 | 53.40224 | 7.01547 | 36851 ft | 478 kts | 69° |
| 2026-05-05 12:34 | 53.41459 | 7.06718 | 36342 ft | 479 kts | 69° |
| 2026-05-05 12:34 | 53.42702 | 7.11927 | 35526 ft | 483 kts | 69° |
| 2026-05-05 12:34 | 53.43955 | 7.17182 | 34661 ft | 488 kts | 69° |
| 2026-05-05 12:34 | 53.45216 | 7.22497 | 33779 ft | 492 kts | 70° |
| 2026-05-05 12:35 | 53.46474 | 7.27825 | 33232 ft | 488 kts | 69° |
| 2026-05-05 12:35 | 53.47717 | 7.33097 | 32617 ft | 484 kts | 69° |
| 2026-05-05 12:35 | 53.48949 | 7.38334 | 32051 ft | 481 kts | 69° |
| 2026-05-05 12:35 | 53.50172 | 7.43550 | 31464 ft | 478 kts | 69° |
| 2026-05-05 12:36 | 53.51386 | 7.48747 | 30878 ft | 476 kts | 69° |
| 2026-05-05 12:36 | 53.52577 | 7.53857 | 30269 ft | 474 kts | 69° |
| 2026-05-05 12:36 | 53.53777 | 7.59001 | 29628 ft | 471 kts | 69° |
| 2026-05-05 12:36 | 53.54965 | 7.64104 | 29055 ft | 467 kts | 69° |
| 2026-05-05 12:37 | 53.56140 | 7.69172 | 28481 ft | 462 kts | 69° |
| 2026-05-05 12:37 | 53.57298 | 7.74195 | 27915 ft | 458 kts | 69° |
| 2026-05-05 12:37 | 53.58442 | 7.79171 | 27360 ft | 454 kts | 69° |
| 2026-05-05 12:37 | 53.59575 | 7.84105 | 26830 ft | 450 kts | 69° |
| 2026-05-05 12:38 | 53.60698 | 7.89000 | 26324 ft | 446 kts | 69° |
| 2026-05-05 12:38 | 53.61685 | 7.93903 | 26000 ft | 437 kts | 78° |
| 2026-05-05 12:38 | 53.61987 | 7.98919 | 25735 ft | 426 kts | 94° |
| 2026-05-05 12:38 | 53.61693 | 8.03835 | 25368 ft | 420 kts | 99° |
| 2026-05-05 12:39 | 53.61330 | 8.08704 | 24989 ft | 417 kts | 99° |
| 2026-05-05 12:39 | 53.60955 | 8.13534 | 24614 ft | 414 kts | 100° |
| 2026-05-05 12:39 | 53.60576 | 8.18330 | 24145 ft | 413 kts | 100° |
| 2026-05-05 12:39 | 53.60188 | 8.23201 | 23254 ft | 424 kts | 99° |
| 2026-05-05 12:40 | 53.59799 | 8.28118 | 22409 ft | 421 kts | 99° |
| 2026-05-05 12:40 | 53.59419 | 8.32979 | 21402 ft | 417 kts | 99° |
| 2026-05-05 12:40 | 53.59046 | 8.37741 | 20445 ft | 413 kts | 99° |
| 2026-05-05 12:40 | 53.58670 | 8.42514 | 19518 ft | 408 kts | 98° |
| 2026-05-05 12:41 | 53.58294 | 8.47227 | 18608 ft | 403 kts | 98° |
| 2026-05-05 12:41 | 53.57921 | 8.51872 | 17638 ft | 398 kts | 98° |
| 2026-05-05 12:41 | 53.57552 | 8.56456 | 16684 ft | 391 kts | 98° |
| 2026-05-05 12:41 | 53.57189 | 8.60945 | 15839 ft | 382 kts | 98° |
| 2026-05-05 12:42 | 53.56835 | 8.65285 | 15418 ft | 363 kts | 98° |
| 2026-05-05 12:42 | 53.56497 | 8.69408 | 14961 ft | 348 kts | 98° |
| 2026-05-05 12:42 | 53.56171 | 8.73373 | 14508 ft | 336 kts | 98° |
| 2026-05-05 12:42 | 53.55852 | 8.77261 | 14046 ft | 336 kts | 98° |
| 2026-05-05 12:43 | 53.55530 | 8.81157 | 13575 ft | 337 kts | 98° |
| 2026-05-05 12:43 | 53.55206 | 8.85060 | 13101 ft | 336 kts | 98° |
| 2026-05-05 12:43 | 53.54882 | 8.88944 | 12643 ft | 335 kts | 98° |
| 2026-05-05 12:43 | 53.54558 | 8.92832 | 12185 ft | 334 kts | 99° |
| 2026-05-05 12:44 | 53.54236 | 8.96639 | 11743 ft | 333 kts | 99° |
| 2026-05-05 12:44 | 53.53910 | 9.00484 | 11304 ft | 332 kts | 99° |
| 2026-05-05 12:44 | 53.53583 | 9.04319 | 10837 ft | 331 kts | 99° |
| 2026-05-05 12:44 | 53.53255 | 9.08143 | 10404 ft | 330 kts | 99° |
| 2026-05-05 12:45 | 53.52928 | 9.11943 | 10096 ft | 324 kts | 99° |
| 2026-05-05 12:45 | 53.52614 | 9.15629 | 9929 ft | 315 kts | 99° |
| 2026-05-05 12:45 | 53.52305 | 9.19241 | 9647 ft | 309 kts | 99° |
| 2026-05-05 12:45 | 53.52002 | 9.22778 | 9415 ft | 302 kts | 99° |
| 2026-05-05 12:46 | 53.51702 | 9.26254 | 9061 ft | 300 kts | 99° |
| 2026-05-05 12:46 | 53.51402 | 9.29702 | 8576 ft | 296 kts | 99° |
| 2026-05-05 12:46 | 53.51103 | 9.33115 | 7899 ft | 294 kts | 99° |
| 2026-05-05 12:46 | 53.50807 | 9.36500 | 7283 ft | 291 kts | 99° |
| 2026-05-05 12:47 | 53.50514 | 9.39849 | 6664 ft | 288 kts | 99° |
| 2026-05-05 12:47 | 53.50222 | 9.43163 | 6032 ft | 286 kts | 98° |
| 2026-05-05 12:47 | 53.49931 | 9.46450 | 5428 ft | 282 kts | 98° |
| 2026-05-05 12:47 | 53.49643 | 9.49667 | 4991 ft | 272 kts | 98° |
| 2026-05-05 12:48 | 53.49373 | 9.52693 | 4839 ft | 253 kts | 98° |
| 2026-05-05 12:48 | 53.49118 | 9.55532 | 4556 ft | 240 kts | 98° |
| 2026-05-05 12:48 | 53.48876 | 9.58193 | 4274 ft | 227 kts | 98° |
| 2026-05-05 12:48 | 53.48646 | 9.60743 | 4058 ft | 214 kts | 98° |
| 2026-05-05 12:49 | 53.48424 | 9.63206 | 3931 ft | 212 kts | 98° |
| 2026-05-05 12:49 | 53.48225 | 9.65654 | 3802 ft | 211 kts | 91° |
| 2026-05-05 12:49 | 53.48310 | 9.68097 | 3676 ft | 208 kts | 76° |
| 2026-05-05 12:49 | 53.48877 | 9.70307 | 3552 ft | 206 kts | 54° |
| 2026-05-05 12:50 | 53.49780 | 9.72168 | 3425 ft | 205 kts | 48° |
| 2026-05-05 12:50 | 53.50699 | 9.73998 | 3300 ft | 204 kts | 49° |
| 2026-05-05 12:50 | 53.51608 | 9.75817 | 3212 ft | 204 kts | 49° |
| 2026-05-05 12:50 | 53.52517 | 9.77638 | 2994 ft | 202 kts | 49° |
| 2026-05-05 12:51 | 53.53405 | 9.79419 | 2739 ft | 200 kts | 50° |
| 2026-05-05 12:51 | 53.54293 | 9.81202 | 2473 ft | 197 kts | 50° |
| 2026-05-05 12:51 | 53.55169 | 9.82961 | 2205 ft | 195 kts | 50° |
| 2026-05-05 12:51 | 53.56033 | 9.84697 | 1961 ft | 191 kts | 50° |
| 2026-05-05 12:52 | 53.56864 | 9.86370 | 1689 ft | 180 kts | 50° |
| 2026-05-05 12:52 | 53.57640 | 9.87932 | 1432 ft | 167 kts | 50° |
| 2026-05-05 12:52 | 53.58348 | 9.89357 | 1212 ft | 151 kts | 50° |
| 2026-05-05 12:52 | 53.58988 | 9.90647 | 1027 ft | 138 kts | 50° |
| 2026-05-05 12:53 | 53.59582 | 9.91845 | 829 ft | 130 kts | 50° |
| 2026-05-05 12:53 | 53.60161 | 9.93004 | 631 ft | 127 kts | 51° |
| 2026-05-05 12:53 | 53.60729 | 9.94149 | 474 ft | 128 kts | 51° |
| 2026-05-05 12:53 | 53.61300 | 9.95308 | 302 ft | 128 kts | 52° |
| 2026-05-05 12:54 | 53.62422 | 9.97582 | 48 ft | 114 kts | 51° |
| 2026-05-05 12:54 | 53.62817 | 9.98379 | 50 ft | 64 kts | 50° |
| 2026-05-05 12:54 | 53.63061 | 9.98867 | 50 ft | 52 kts | 50° |
| 2026-05-05 12:55 | 53.63253 | 9.99251 | 53 ft | 32 kts | 50° |
| 2026-05-05 12:55 | 53.63287 | 9.99551 | 50 ft | 21 kts | 98° |
| 2026-05-05 12:55 | 53.63278 | 9.99647 | 50 ft | 0 kts | 98° |
| 2026-05-05 12:57 | 53.63276 | 9.99666 | 50 ft | 4 kts | 98° |
| 2026-05-05 12:58 | 53.63258 | 9.99733 | 49 ft | 9 kts | 134° |
| 2026-05-05 12:58 | 53.63202 | 9.99781 | 50 ft | 2 kts | 154° |
| 2026-05-05 12:58 | 53.63171 | 9.99807 | 50 ft | 8 kts | 153° |
| 2026-05-05 12:58 | 53.63104 | 9.99867 | 50 ft | 14 kts | 151° |
| 2026-05-05 12:59 | 53.63047 | 9.99918 | 51 ft | 5 kts | 153° |
| 2026-05-05 12:59 | 53.62999 | 9.99959 | 51 ft | 12 kts | 153° |
| 2026-05-05 12:59 | 53.62918 | 10.00032 | 50 ft | 12 kts | 143° |
| 2026-05-05 13:00 | 53.63009 | 10.00195 | 49 ft | 14 kts | 32° |
| 2026-05-05 13:00 | 53.63061 | 10.00274 | 51 ft | 9 kts | 91° |
| 2026-05-05 13:01 | 53.63033 | 10.00349 | 48 ft | 0 kts | 123° |